Nearby METAR Reports

 

KIMT - Iron Mountain, Michigan, USA
Distance from station: 0 29mi, 47km
Updated: Sat, 31-Oct-2020 6:54pm CDT
Overcast
Overcast
 Wind from SSE
Wind: SSE 8 mph , 13 km/h
Temperature: 46°F , 8°C
Wind Chill: 42°F , 6°C
Dew Point: 34°F , 1°C
Humidity: 62%
Barometer: 29.64 inHg , 1003.7 hPa
Clouds: Overcast
Visibility: 10 miles , 16 km
Cloud details: Overcast 4200 ft
2020/10/31 23:54 KIMT 312354Z AUTO 16007KT 10SM OVC042 08/01 A2964 RMK AO2 SLP050 T00830011 10100 20072 58015
KMNM - Menominee, Michigan, USA
Distance from station: SE 31mi, 51km
Updated: Sat, 31-Oct-2020 6:56pm CDT
Overcast
Overcast
 Wind from SSW
Wind: SSW 15 mph , 24 km/h, Gust: 23 mph , 37 km/h
Temperature: 48°F , 9°C
Wind Chill: 42°F , 6°C
Dew Point: 39°F , 4°C
Humidity: 71%
Barometer: 29.71 inHg , 1006.1 hPa
Clouds: Overcast
Visibility: 10 miles , 16 km
Cloud details: Overcast 5500 ft
2020/10/31 23:56 KMNM 312356Z AUTO 20013G20KT 10SM OVC055 09/04 A2971 RMK AO2 SLP063 60000 T00940039 10100 20083 58026 $
 
KOCQ - Oconto, Wisconsin, USA
Distance from station: SSE 38mi, 61km
Updated: Sat, 31-Oct-2020 7:35pm CDT
Overcast
Overcast
 Wind from S
Wind: S 13 mph , 20 km/h
Temperature: 48°F , 9°C
Wind Chill: 43°F , 6°C
Dew Point: 39°F , 4°C
Humidity: 71%
Barometer: 29.68 inHg , 1005.1 hPa
Clouds: Overcast
Visibility: 10 miles , 16 km
Cloud details: Overcast 6000 ft
2020/11/01 00:35 KOCQ 010035Z AUTO 17011KT 10SM OVC060 09/04 A2968 RMK AO1 T00930035
KEZS - Shawano Muni, Wisconsin, USA
Distance from station: SSW 48mi, 77km
Updated: Sat, 31-Oct-2020 7:35pm CDT
Overcast
Overcast
 Wind from SSW
Wind: SSW 6 mph , 9 km/h
Temperature: 55°F , 13°C
Dew Point: 39°F , 4°C
Humidity: 55%
Barometer: 29.67 inHg , 1004.7 hPa
Clouds: Overcast
Visibility: 10 miles , 16 km
Cloud details: Overcast 5000 ft
2020/11/01 00:35 KEZS 010035Z AUTO 20005KT 10SM OVC050 13/04 A2967 RMK AO2 T01320040
 
KAIG - Antigo/Langlade, Wisconsin, USA
Distance from station: WSW 51mi, 82km
Updated: Sat, 31-Oct-2020 7:35pm CDT
Mostly cloudy
Mostly cloudy
 Wind from WSW
Wind: WSW 12 mph , 19 km/h
Temperature: 50°F , 10°C
Wind Chill: 45°F , 7°C
Dew Point: 37°F , 3°C
Humidity: 62%
Barometer: 29.67 inHg , 1004.7 hPa
Clouds: Mostly cloudy
Visibility: 10 miles , 16 km
Cloud details: Partly cloudy 3800 ft
Mostly cloudy 5000 ft
2020/11/01 00:35 KAIG 010035Z AUTO 24010KT 10SM SCT038 BKN050 10/03 A2967 RMK AO2 T00950027
KSUE - Sturgeon Bay, Wisconsin, USA
Distance from station: SE 51mi, 82km
Updated: Sat, 31-Oct-2020 6:56pm CDT
Overcast
Overcast
 Wind from S
Wind: S 16 mph , 26 km/h, Gust: 25 mph , 41 km/h
Temperature: 48°F , 9°C
Wind Chill: 42°F , 6°C
Dew Point: 39°F , 4°C
Humidity: 71%
Barometer: 29.74 inHg , 1007.1 hPa
Clouds: Overcast
Visibility: 10 miles , 16 km
Cloud details: Overcast 6000 ft
2020/10/31 23:56 KSUE 312356Z AUTO 18014G22KT 10SM OVC060 09/04 A2974 RMK AO2 PK WND 18028/2305 SLP073 6//// T00940039 10094 20078 56024
 
KESC - Escanaba, Michigan, USA
Distance from station: ENE 56mi, 90km
Updated: Sat, 31-Oct-2020 6:56pm CDT
Overcast
Overcast
 Wind from SSW
Wind: SSW 18 mph , 30 km/h, Gust: 25 mph , 41 km/h
Temperature: 48°F , 9°C
Wind Chill: 41°F , 5°C
Dew Point: 41°F , 5°C
Humidity: 76%
Barometer: 29.70 inHg , 1005.8 hPa
Clouds: Overcast
Visibility: 10 miles , 16 km
Cloud details: Overcast 5000 ft
2020/10/31 23:56 KESC 312356Z AUTO 20016G22KT 10SM OVC050 09/05 A2970 RMK AO2 PK WND 21028/2331 SLP065 T00890050 10089 20078 56026
KCLI - Clintonville, Wisconsin, USA
Distance from station: SSW 62mi, 99km
Updated: Sat, 31-Oct-2020 7:35pm CDT
Overcast
Overcast
 Wind from SSW
Wind: SSW 14 mph , 22 km/h, Gust: 18 mph , 30 km/h
Temperature: 55°F , 13°C
Dew Point: 37°F , 3°C
Humidity: 51%
Barometer: 29.68 inHg , 1005.1 hPa
Clouds: Overcast
Visibility: 10 miles , 16 km
Cloud details: Overcast 5000 ft
2020/11/01 00:35 KCLI 010035Z AUTO 20012G16KT 10SM OVC050 13/03 A2968 RMK AO2 T01290030
 
KGRB - Ashwaubenon, Wisconsin, USA
Distance from station: S 63mi, 102km
Updated: Sat, 31-Oct-2020 6:53pm CDT
Overcast
Overcast
 Wind from S
Wind: S 15 mph , 24 km/h, Gust: 25 mph , 41 km/h
Temperature: 55°F , 13°C
Dew Point: 37°F , 3°C
Humidity: 51%
Barometer: 29.73 inHg , 1006.8 hPa
Clouds: Overcast
Visibility: 10 miles , 16 km
Cloud details: Overcast 5500 ft
2020/10/31 23:53 KGRB 312353Z AUTO 19013G22KT 10SM OVC055 13/03 A2973 RMK AO2 SLP072 T01280033 10128 20100 58022
KEGV - Eagle River, Wisconsin, USA
Distance from station: NW 66mi, 107km
Updated: Sat, 31-Oct-2020 7:35pm CDT
Overcast
Overcast
 Wind from WSW
Wind: WSW 10 mph , 17 km/h, Gust: 16 mph , 26 km/h
Temperature: 45°F , 7°C
Wind Chill: 40°F , 4°C
Dew Point: 36°F , 2°C
Humidity: 71%
Barometer: 29.63 inHg , 1003.4 hPa
Clouds: Overcast
Visibility: 10 miles , 16 km
Cloud details: Mostly cloudy 3000 ft
Overcast 4800 ft
2020/11/01 00:35 KEGV 010035Z AUTO 25009G14KT 10SM BKN030 OVC048 07/02 A2963 RMK AO2 T00740018
 
KRHI - Rhinelander, Wisconsin, USA
Distance from station: WNW 68mi, 109km
Updated: Sat, 31-Oct-2020 6:53pm CDT
Overcast
Overcast
 Wind from SW
Wind: SW 12 mph , 19 km/h, Gust: 20 mph , 31 km/h
Temperature: 48°F , 9°C
Wind Chill: 43°F , 6°C
Dew Point: 36°F , 2°C
Humidity: 62%
Barometer: 29.65 inHg , 1004.1 hPa
Clouds: Overcast
Visibility: 10 miles , 16 km
Cloud details: Overcast 3300 ft
2020/10/31 23:53 KRHI 312353Z AUTO 23010G17KT 10SM OVC033 09/02 A2965 RMK AO2 SLP053 T00940022 10100 20067 56014
KLNL - Land O Lakes, Wisconsin, USA
Distance from station: NW 74mi, 119km
Updated: Sat, 31-Oct-2020 7:35pm CDT
Overcast
Overcast
 Wind from SW
Wind: SW 5 mph , 7 km/h
Temperature: 46°F , 8°C
Wind Chill: 44°F , 7°C
Dew Point: 36°F , 2°C
Humidity: 66%
Barometer: 29.63 inHg , 1003.4 hPa
Clouds: Overcast
Visibility: 10 miles , 16 km
Cloud details: Partly cloudy 2900 ft
Overcast 4600 ft
2020/11/01 00:35 KLNL 010035Z AUTO 23004KT 10SM SCT029 OVC046 08/02 A2963 RMK AO2 T00800016
 
KSAW - Gwinn/Sawyer, Michigan, USA
Distance from station: NNE 74mi, 120km
Updated: Sat, 31-Oct-2020 7:47pm CDT
Overcast
Overcast
 Wind from S
Wind: S 15 mph , 24 km/h, Gust: 22 mph , 35 km/h
Temperature: 43°F , 6°C
Wind Chill: 36°F , 2°C
Dew Point: 36°F , 2°C
Humidity: 76%
Barometer: 29.61 inHg , 1002.7 hPa
Clouds: Overcast
Visibility: 10 miles , 16 km
Cloud details: Partly cloudy 3700 ft
Overcast 4300 ft
2020/11/01 00:47 KSAW 010047Z 18013G19KT 10SM SCT037 OVC043 06/02 A2961